sensor_id;sensor_type;location;lat;lon;timestamp;P1;durP1;ratioP1;P2;durP2;ratioP2
51814;SDS011;37874;53.158;6.766;2024-01-06T00:02:05;1.20;;;0.70;;
51814;SDS011;37874;53.158;6.766;2024-01-06T00:04:31;1.17;;;0.70;;
51814;SDS011;37874;53.158;6.766;2024-01-06T00:06:57;1.00;;;0.70;;
51814;SDS011;37874;53.158;6.766;2024-01-06T00:09:23;1.02;;;0.70;;
51814;SDS011;37874;53.158;6.766;2024-01-06T00:11:49;0.70;;;0.40;;
51814;SDS011;37874;53.158;6.766;2024-01-06T00:14:15;1.00;;;0.50;;
51814;SDS011;37874;53.158;6.766;2024-01-06T00:16:40;1.27;;;0.70;;
51814;SDS011;37874;53.158;6.766;2024-01-06T00:19:06;1.10;;;0.60;;
51814;SDS011;37874;53.158;6.766;2024-01-06T00:21:32;1.20;;;0.70;;
51814;SDS011;37874;53.158;6.766;2024-01-06T00:23:57;1.60;;;0.70;;
51814;SDS011;37874;53.158;6.766;2024-01-06T00:26:23;1.05;;;0.70;;
51814;SDS011;37874;53.158;6.766;2024-01-06T00:28:52;1.02;;;0.70;;
51814;SDS011;37874;53.158;6.766;2024-01-06T00:31:18;0.95;;;0.50;;
51814;SDS011;37874;53.158;6.766;2024-01-06T00:33:44;1.27;;;0.63;;
51814;SDS011;37874;53.158;6.766;2024-01-06T00:36:10;1.20;;;0.73;;
51814;SDS011;37874;53.158;6.766;2024-01-06T00:38:36;1.00;;;0.60;;
51814;SDS011;37874;53.158;6.766;2024-01-06T00:41:02;0.90;;;0.60;;
51814;SDS011;37874;53.158;6.766;2024-01-06T00:43:27;1.30;;;0.70;;
51814;SDS011;37874;53.158;6.766;2024-01-06T00:45:53;1.05;;;0.60;;
51814;SDS011;37874;53.158;6.766;2024-01-06T00:48:19;1.27;;;0.73;;
51814;SDS011;37874;53.158;6.766;2024-01-06T00:50:45;1.02;;;0.70;;
51814;SDS011;37874;53.158;6.766;2024-01-06T00:53:11;1.00;;;0.50;;
51814;SDS011;37874;53.158;6.766;2024-01-06T00:55:37;1.23;;;0.70;;
51814;SDS011;37874;53.158;6.766;2024-01-06T00:58:03;1.10;;;0.63;;
51814;SDS011;37874;53.158;6.766;2024-01-06T01:00:28;1.20;;;0.80;;
51814;SDS011;37874;53.158;6.766;2024-01-06T01:02:54;1.38;;;0.77;;
51814;SDS011;37874;53.158;6.766;2024-01-06T01:05:20;0.80;;;0.55;;
51814;SDS011;37874;53.158;6.766;2024-01-06T01:07:46;0.93;;;0.63;;
51814;SDS011;37874;53.158;6.766;2024-01-06T01:10:11;0.95;;;0.60;;
51814;SDS011;37874;53.158;6.766;2024-01-06T01:12:37;1.20;;;0.75;;
51814;SDS011;37874;53.158;6.766;2024-01-06T01:15:04;1.17;;;0.60;;
51814;SDS011;37874;53.158;6.766;2024-01-06T01:17:30;1.40;;;0.77;;
51814;SDS011;37874;53.158;6.766;2024-01-06T01:19:56;0.98;;;0.60;;
51814;SDS011;37874;53.158;6.766;2024-01-06T01:22:24;1.42;;;0.85;;
51814;SDS011;37874;53.158;6.766;2024-01-06T01:24:50;1.20;;;0.90;;
51814;SDS011;37874;53.158;6.766;2024-01-06T01:27:16;1.55;;;0.90;;
51814;SDS011;37874;53.158;6.766;2024-01-06T01:29:45;1.10;;;0.70;;
51814;SDS011;37874;53.158;6.766;2024-01-06T01:32:18;1.20;;;0.73;;
51814;SDS011;37874;53.158;6.766;2024-01-06T01:34:46;1.27;;;0.70;;
51814;SDS011;37874;53.158;6.766;2024-01-06T01:37:12;1.45;;;0.85;;
51814;SDS011;37874;53.158;6.766;2024-01-06T01:39:38;1.02;;;0.75;;
51814;SDS011;37874;53.158;6.766;2024-01-06T01:42:04;1.40;;;0.82;;
51814;SDS011;37874;53.158;6.766;2024-01-06T01:44:29;1.48;;;0.80;;
51814;SDS011;37874;53.158;6.766;2024-01-06T01:46:55;1.33;;;0.70;;
51814;SDS011;37874;53.158;6.766;2024-01-06T01:49:21;1.60;;;1.00;;
51814;SDS011;37874;53.158;6.766;2024-01-06T01:51:47;1.60;;;0.80;;
51814;SDS011;37874;53.158;6.766;2024-01-06T01:54:14;1.30;;;0.73;;
51814;SDS011;37874;53.158;6.766;2024-01-06T01:56:40;1.08;;;0.70;;
51814;SDS011;37874;53.158;6.766;2024-01-06T01:59:11;1.27;;;0.73;;
51814;SDS011;37874;53.158;6.766;2024-01-06T02:01:38;1.35;;;0.77;;
51814;SDS011;37874;53.158;6.766;2024-01-06T02:04:08;1.08;;;0.73;;
51814;SDS011;37874;53.158;6.766;2024-01-06T02:06:34;1.27;;;0.70;;
51814;SDS011;37874;53.158;6.766;2024-01-06T02:09:00;1.52;;;0.80;;
51814;SDS011;37874;53.158;6.766;2024-01-06T02:11:25;1.52;;;0.90;;
51814;SDS011;37874;53.158;6.766;2024-01-06T02:13:51;1.50;;;0.80;;
51814;SDS011;37874;53.158;6.766;2024-01-06T02:16:17;1.15;;;0.77;;
51814;SDS011;37874;53.158;6.766;2024-01-06T02:18:42;1.20;;;0.80;;
51814;SDS011;37874;53.158;6.766;2024-01-06T02:21:08;1.13;;;0.70;;
51814;SDS011;37874;53.158;6.766;2024-01-06T02:23:35;1.35;;;0.90;;
51814;SDS011;37874;53.158;6.766;2024-01-06T02:26:02;1.30;;;0.80;;
51814;SDS011;37874;53.158;6.766;2024-01-06T02:28:28;1.23;;;0.80;;
51814;SDS011;37874;53.158;6.766;2024-01-06T02:30:54;1.15;;;0.80;;
51814;SDS011;37874;53.158;6.766;2024-01-06T02:33:19;1.52;;;0.90;;
51814;SDS011;37874;53.158;6.766;2024-01-06T02:35:45;1.85;;;1.00;;
51814;SDS011;37874;53.158;6.766;2024-01-06T02:38:11;1.15;;;0.65;;
51814;SDS011;37874;53.158;6.766;2024-01-06T02:40:37;2.58;;;0.95;;
51814;SDS011;37874;53.158;6.766;2024-01-06T02:43:03;2.03;;;1.00;;
51814;SDS011;37874;53.158;6.766;2024-01-06T02:45:29;1.77;;;0.93;;
51814;SDS011;37874;53.158;6.766;2024-01-06T02:47:54;1.10;;;0.80;;
51814;SDS011;37874;53.158;6.766;2024-01-06T02:50:20;1.60;;;0.95;;
51814;SDS011;37874;53.158;6.766;2024-01-06T02:52:46;1.63;;;0.90;;
51814;SDS011;37874;53.158;6.766;2024-01-06T02:55:12;1.63;;;0.90;;
51814;SDS011;37874;53.158;6.766;2024-01-06T02:57:38;1.90;;;0.80;;
51814;SDS011;37874;53.158;6.766;2024-01-06T03:00:04;1.50;;;0.98;;
51814;SDS011;37874;53.158;6.766;2024-01-06T03:02:30;1.80;;;0.88;;
51814;SDS011;37874;53.158;6.766;2024-01-06T03:04:55;1.70;;;1.10;;
51814;SDS011;37874;53.158;6.766;2024-01-06T03:07:21;1.70;;;1.10;;
51814;SDS011;37874;53.158;6.766;2024-01-06T03:09:47;1.80;;;1.15;;
51814;SDS011;37874;53.158;6.766;2024-01-06T03:12:12;1.63;;;0.90;;
51814;SDS011;37874;53.158;6.766;2024-01-06T03:14:38;1.60;;;0.98;;
51814;SDS011;37874;53.158;6.766;2024-01-06T03:17:04;2.03;;;1.00;;
51814;SDS011;37874;53.158;6.766;2024-01-06T03:19:30;2.00;;;1.10;;
51814;SDS011;37874;53.158;6.766;2024-01-06T03:21:56;2.20;;;1.08;;
51814;SDS011;37874;53.158;6.766;2024-01-06T03:24:22;1.95;;;1.10;;
51814;SDS011;37874;53.158;6.766;2024-01-06T03:26:48;1.70;;;0.93;;
51814;SDS011;37874;53.158;6.766;2024-01-06T03:29:14;1.67;;;0.93;;
51814;SDS011;37874;53.158;6.766;2024-01-06T03:31:46;1.10;;;0.70;;
51814;SDS011;37874;53.158;6.766;2024-01-06T03:34:12;1.30;;;0.90;;
51814;SDS011;37874;53.158;6.766;2024-01-06T03:36:38;1.77;;;0.80;;
51814;SDS011;37874;53.158;6.766;2024-01-06T03:39:04;1.40;;;0.85;;
51814;SDS011;37874;53.158;6.766;2024-01-06T03:41:30;1.67;;;0.90;;
51814;SDS011;37874;53.158;6.766;2024-01-06T03:43:55;1.52;;;0.90;;
51814;SDS011;37874;53.158;6.766;2024-01-06T03:46:21;1.75;;;0.98;;
51814;SDS011;37874;53.158;6.766;2024-01-06T03:48:48;1.30;;;0.80;;
51814;SDS011;37874;53.158;6.766;2024-01-06T03:51:14;1.50;;;0.80;;
51814;SDS011;37874;53.158;6.766;2024-01-06T03:53:40;1.60;;;0.93;;
51814;SDS011;37874;53.158;6.766;2024-01-06T03:56:05;1.88;;;0.93;;
51814;SDS011;37874;53.158;6.766;2024-01-06T03:58:31;1.70;;;0.90;;
51814;SDS011;37874;53.158;6.766;2024-01-06T04:00:57;1.48;;;0.82;;
51814;SDS011;37874;53.158;6.766;2024-01-06T04:03:23;1.50;;;0.80;;
51814;SDS011;37874;53.158;6.766;2024-01-06T04:05:49;1.13;;;0.80;;
51814;SDS011;37874;53.158;6.766;2024-01-06T04:08:14;0.85;;;0.55;;
51814;SDS011;37874;53.158;6.766;2024-01-06T04:10:40;1.45;;;0.80;;
51814;SDS011;37874;53.158;6.766;2024-01-06T04:13:07;1.67;;;0.80;;
51814;SDS011;37874;53.158;6.766;2024-01-06T04:15:33;1.27;;;0.73;;
51814;SDS011;37874;53.158;6.766;2024-01-06T04:18:01;1.50;;;0.80;;
51814;SDS011;37874;53.158;6.766;2024-01-06T04:20:28;1.40;;;0.73;;
51814;SDS011;37874;53.158;6.766;2024-01-06T04:22:54;1.45;;;0.77;;
51814;SDS011;37874;53.158;6.766;2024-01-06T04:25:20;1.23;;;0.90;;
51814;SDS011;37874;53.158;6.766;2024-01-06T04:27:46;1.20;;;0.68;;
51814;SDS011;37874;53.158;6.766;2024-01-06T04:30:13;1.10;;;0.60;;
51814;SDS011;37874;53.158;6.766;2024-01-06T04:32:39;1.15;;;0.63;;
51814;SDS011;37874;53.158;6.766;2024-01-06T04:35:05;1.75;;;0.90;;
51814;SDS011;37874;53.158;6.766;2024-01-06T04:37:31;1.50;;;0.70;;
51814;SDS011;37874;53.158;6.766;2024-01-06T04:39:57;1.60;;;0.80;;
51814;SDS011;37874;53.158;6.766;2024-01-06T04:42:22;1.70;;;0.85;;
51814;SDS011;37874;53.158;6.766;2024-01-06T04:44:49;1.55;;;0.80;;
51814;SDS011;37874;53.158;6.766;2024-01-06T04:47:15;1.17;;;0.70;;
51814;SDS011;37874;53.158;6.766;2024-01-06T04:49:41;1.00;;;0.68;;
51814;SDS011;37874;53.158;6.766;2024-01-06T04:52:07;1.48;;;0.70;;
51814;SDS011;37874;53.158;6.766;2024-01-06T04:54:33;1.70;;;0.93;;
51814;SDS011;37874;53.158;6.766;2024-01-06T04:56:59;1.08;;;0.60;;
51814;SDS011;37874;53.158;6.766;2024-01-06T04:59:24;1.50;;;0.70;;
51814;SDS011;37874;53.158;6.766;2024-01-06T05:01:50;1.30;;;0.80;;
51814;SDS011;37874;53.158;6.766;2024-01-06T05:04:18;1.08;;;0.68;;
51814;SDS011;37874;53.158;6.766;2024-01-06T05:06:44;1.60;;;0.90;;
51814;SDS011;37874;53.158;6.766;2024-01-06T05:09:10;1.35;;;0.75;;
51814;SDS011;37874;53.158;6.766;2024-01-06T05:11:36;1.73;;;0.80;;
51814;SDS011;37874;53.158;6.766;2024-01-06T05:14:02;1.65;;;0.90;;
51814;SDS011;37874;53.158;6.766;2024-01-06T05:16:27;0.93;;;0.60;;
51814;SDS011;37874;53.158;6.766;2024-01-06T05:18:53;0.82;;;0.47;;
51814;SDS011;37874;53.158;6.766;2024-01-06T05:21:19;1.73;;;0.80;;
51814;SDS011;37874;53.158;6.766;2024-01-06T05:23:45;1.25;;;0.68;;
51814;SDS011;37874;53.158;6.766;2024-01-06T05:26:11;1.45;;;0.80;;
51814;SDS011;37874;53.158;6.766;2024-01-06T05:28:38;1.33;;;0.80;;
51814;SDS011;37874;53.158;6.766;2024-01-06T05:31:05;1.60;;;0.80;;
51814;SDS011;37874;53.158;6.766;2024-01-06T05:33:31;1.63;;;0.70;;
51814;SDS011;37874;53.158;6.766;2024-01-06T05:35:57;1.45;;;0.80;;
51814;SDS011;37874;53.158;6.766;2024-01-06T05:38:22;1.23;;;0.70;;
51814;SDS011;37874;53.158;6.766;2024-01-06T05:40:48;1.90;;;0.80;;
51814;SDS011;37874;53.158;6.766;2024-01-06T05:43:14;1.30;;;0.70;;
51814;SDS011;37874;53.158;6.766;2024-01-06T05:45:40;1.80;;;1.00;;
51814;SDS011;37874;53.158;6.766;2024-01-06T05:48:10;1.15;;;0.75;;
51814;SDS011;37874;53.158;6.766;2024-01-06T05:50:39;1.17;;;0.80;;
51814;SDS011;37874;53.158;6.766;2024-01-06T05:53:05;1.52;;;0.85;;
51814;SDS011;37874;53.158;6.766;2024-01-06T05:55:32;1.63;;;0.80;;
51814;SDS011;37874;53.158;6.766;2024-01-06T05:57:57;1.50;;;0.80;;
51814;SDS011;37874;53.158;6.766;2024-01-06T06:00:23;2.10;;;1.08;;
51814;SDS011;37874;53.158;6.766;2024-01-06T06:02:49;1.42;;;0.77;;
51814;SDS011;37874;53.158;6.766;2024-01-06T06:05:15;1.80;;;0.80;;
51814;SDS011;37874;53.158;6.766;2024-01-06T06:07:40;1.98;;;0.85;;
51814;SDS011;37874;53.158;6.766;2024-01-06T06:10:08;1.50;;;0.90;;
51814;SDS011;37874;53.158;6.766;2024-01-06T06:12:34;1.60;;;0.80;;
51814;SDS011;37874;53.158;6.766;2024-01-06T06:15:01;1.20;;;0.65;;
51814;SDS011;37874;53.158;6.766;2024-01-06T06:17:28;1.42;;;0.80;;
51814;SDS011;37874;53.158;6.766;2024-01-06T06:19:58;1.65;;;0.90;;
51814;SDS011;37874;53.158;6.766;2024-01-06T06:22:24;1.45;;;0.85;;
51814;SDS011;37874;53.158;6.766;2024-01-06T06:24:57;1.38;;;0.70;;
51814;SDS011;37874;53.158;6.766;2024-01-06T06:27:24;1.70;;;0.77;;
51814;SDS011;37874;53.158;6.766;2024-01-06T06:29:52;2.03;;;0.80;;
51814;SDS011;37874;53.158;6.766;2024-01-06T06:32:21;1.73;;;0.70;;
51814;SDS011;37874;53.158;6.766;2024-01-06T06:34:52;1.17;;;0.70;;
51814;SDS011;37874;53.158;6.766;2024-01-06T06:37:18;1.13;;;0.73;;
51814;SDS011;37874;53.158;6.766;2024-01-06T06:39:44;1.90;;;0.90;;
51814;SDS011;37874;53.158;6.766;2024-01-06T06:42:10;1.25;;;0.77;;
51814;SDS011;37874;53.158;6.766;2024-01-06T06:44:36;1.48;;;0.77;;
51814;SDS011;37874;53.158;6.766;2024-01-06T06:47:03;1.42;;;0.80;;
51814;SDS011;37874;53.158;6.766;2024-01-06T06:49:31;1.85;;;0.93;;
51814;SDS011;37874;53.158;6.766;2024-01-06T06:51:57;1.75;;;0.90;;
51814;SDS011;37874;53.158;6.766;2024-01-06T06:54:23;1.48;;;0.77;;
51814;SDS011;37874;53.158;6.766;2024-01-06T06:56:49;1.58;;;0.80;;
51814;SDS011;37874;53.158;6.766;2024-01-06T06:59:15;1.33;;;0.65;;
51814;SDS011;37874;53.158;6.766;2024-01-06T07:01:57;1.65;;;0.90;;
51814;SDS011;37874;53.158;6.766;2024-01-06T07:04:28;1.70;;;0.85;;
51814;SDS011;37874;53.158;6.766;2024-01-06T07:06:56;2.03;;;0.88;;
51814;SDS011;37874;53.158;6.766;2024-01-06T07:09:23;1.65;;;0.90;;
51814;SDS011;37874;53.158;6.766;2024-01-06T07:11:49;1.40;;;0.70;;
51814;SDS011;37874;53.158;6.766;2024-01-06T07:14:16;1.55;;;0.88;;
51814;SDS011;37874;53.158;6.766;2024-01-06T07:16:44;1.10;;;0.73;;
51814;SDS011;37874;53.158;6.766;2024-01-06T07:19:13;2.05;;;0.80;;
51814;SDS011;37874;53.158;6.766;2024-01-06T07:21:39;1.65;;;1.00;;
51814;SDS011;37874;53.158;6.766;2024-01-06T07:24:05;1.85;;;0.90;;
51814;SDS011;37874;53.158;6.766;2024-01-06T07:26:31;1.98;;;0.98;;
51814;SDS011;37874;53.158;6.766;2024-01-06T07:28:57;1.60;;;0.90;;
51814;SDS011;37874;53.158;6.766;2024-01-06T07:31:23;1.73;;;0.90;;
51814;SDS011;37874;53.158;6.766;2024-01-06T07:33:52;1.30;;;0.85;;
51814;SDS011;37874;53.158;6.766;2024-01-06T07:36:18;1.30;;;0.80;;
51814;SDS011;37874;53.158;6.766;2024-01-06T07:38:43;1.58;;;0.80;;
51814;SDS011;37874;53.158;6.766;2024-01-06T07:41:11;1.75;;;0.90;;
51814;SDS011;37874;53.158;6.766;2024-01-06T07:43:36;1.73;;;0.90;;
51814;SDS011;37874;53.158;6.766;2024-01-06T07:46:02;1.90;;;1.02;;
51814;SDS011;37874;53.158;6.766;2024-01-06T07:48:29;1.20;;;0.73;;
51814;SDS011;37874;53.158;6.766;2024-01-06T07:50:54;1.70;;;1.10;;
51814;SDS011;37874;53.158;6.766;2024-01-06T07:53:24;1.40;;;0.90;;
51814;SDS011;37874;53.158;6.766;2024-01-06T07:55:51;1.63;;;0.98;;
51814;SDS011;37874;53.158;6.766;2024-01-06T07:58:19;1.17;;;0.70;;
51814;SDS011;37874;53.158;6.766;2024-01-06T08:00:46;1.50;;;0.90;;
51814;SDS011;37874;53.158;6.766;2024-01-06T08:03:13;1.83;;;0.93;;
51814;SDS011;37874;53.158;6.766;2024-01-06T08:05:38;1.58;;;0.90;;
51814;SDS011;37874;53.158;6.766;2024-01-06T08:08:05;1.77;;;0.90;;
51814;SDS011;37874;53.158;6.766;2024-01-06T08:10:34;2.08;;;1.05;;
51814;SDS011;37874;53.158;6.766;2024-01-06T08:12:59;1.60;;;0.82;;
51814;SDS011;37874;53.158;6.766;2024-01-06T08:15:25;1.88;;;0.80;;
51814;SDS011;37874;53.158;6.766;2024-01-06T08:17:52;1.77;;;0.90;;
51814;SDS011;37874;53.158;6.766;2024-01-06T08:20:18;2.40;;;1.00;;
51814;SDS011;37874;53.158;6.766;2024-01-06T08:22:44;1.60;;;0.90;;
51814;SDS011;37874;53.158;6.766;2024-01-06T08:25:10;2.72;;;1.10;;
51814;SDS011;37874;53.158;6.766;2024-01-06T08:27:36;1.92;;;1.10;;
51814;SDS011;37874;53.158;6.766;2024-01-06T08:30:02;1.73;;;1.00;;
51814;SDS011;37874;53.158;6.766;2024-01-06T08:32:31;1.88;;;1.00;;
51814;SDS011;37874;53.158;6.766;2024-01-06T08:34:56;2.42;;;1.10;;
51814;SDS011;37874;53.158;6.766;2024-01-06T08:37:23;2.05;;;1.02;;
51814;SDS011;37874;53.158;6.766;2024-01-06T08:39:52;2.10;;;0.95;;
51814;SDS011;37874;53.158;6.766;2024-01-06T08:42:18;1.70;;;0.98;;
51814;SDS011;37874;53.158;6.766;2024-01-06T08:44:44;2.22;;;0.98;;
51814;SDS011;37874;53.158;6.766;2024-01-06T08:47:09;2.15;;;1.10;;
51814;SDS011;37874;53.158;6.766;2024-01-06T08:49:36;3.22;;;1.10;;
51814;SDS011;37874;53.158;6.766;2024-01-06T08:52:01;1.83;;;0.98;;
51814;SDS011;37874;53.158;6.766;2024-01-06T08:54:33;3.05;;;1.10;;
51814;SDS011;37874;53.158;6.766;2024-01-06T08:57:04;1.70;;;1.00;;
51814;SDS011;37874;53.158;6.766;2024-01-06T08:59:32;1.95;;;1.10;;
51814;SDS011;37874;53.158;6.766;2024-01-06T09:01:58;2.67;;;1.25;;
51814;SDS011;37874;53.158;6.766;2024-01-06T09:04:24;2.00;;;1.10;;
51814;SDS011;37874;53.158;6.766;2024-01-06T09:06:50;1.45;;;1.00;;
51814;SDS011;37874;53.158;6.766;2024-01-06T09:09:16;2.10;;;1.10;;
51814;SDS011;37874;53.158;6.766;2024-01-06T09:11:42;1.83;;;1.20;;
51814;SDS011;37874;53.158;6.766;2024-01-06T09:14:09;2.30;;;1.23;;
51814;SDS011;37874;53.158;6.766;2024-01-06T09:16:36;1.95;;;1.13;;
51814;SDS011;37874;53.158;6.766;2024-01-06T09:19:02;1.88;;;1.13;;
51814;SDS011;37874;53.158;6.766;2024-01-06T09:21:28;1.88;;;1.17;;
51814;SDS011;37874;53.158;6.766;2024-01-06T09:23:54;2.00;;;1.20;;
51814;SDS011;37874;53.158;6.766;2024-01-06T09:26:19;2.17;;;1.27;;
51814;SDS011;37874;53.158;6.766;2024-01-06T09:28:45;2.10;;;1.33;;
51814;SDS011;37874;53.158;6.766;2024-01-06T09:31:13;2.05;;;1.23;;
51814;SDS011;37874;53.158;6.766;2024-01-06T09:33:42;1.77;;;1.10;;
51814;SDS011;37874;53.158;6.766;2024-01-06T09:36:11;2.15;;;1.30;;
51814;SDS011;37874;53.158;6.766;2024-01-06T09:38:38;2.13;;;1.10;;
51814;SDS011;37874;53.158;6.766;2024-01-06T09:41:06;1.80;;;1.10;;
51814;SDS011;37874;53.158;6.766;2024-01-06T09:43:32;2.55;;;1.48;;
51814;SDS011;37874;53.158;6.766;2024-01-06T09:46:06;2.10;;;1.17;;
51814;SDS011;37874;53.158;6.766;2024-01-06T09:48:47;2.13;;;1.25;;
51814;SDS011;37874;53.158;6.766;2024-01-06T09:51:16;2.50;;;1.30;;
51814;SDS011;37874;53.158;6.766;2024-01-06T09:53:57;2.13;;;1.20;;
51814;SDS011;37874;53.158;6.766;2024-01-06T09:56:26;2.33;;;1.30;;
51814;SDS011;37874;53.158;6.766;2024-01-06T09:58:53;2.15;;;1.35;;
51814;SDS011;37874;53.158;6.766;2024-01-06T10:01:19;2.15;;;1.40;;
51814;SDS011;37874;53.158;6.766;2024-01-06T10:03:45;3.85;;;1.50;;
51814;SDS011;37874;53.158;6.766;2024-01-06T10:06:13;2.30;;;1.40;;
51814;SDS011;37874;53.158;6.766;2024-01-06T10:08:39;2.53;;;1.40;;
51814;SDS011;37874;53.158;6.766;2024-01-06T10:11:12;2.47;;;1.38;;
51814;SDS011;37874;53.158;6.766;2024-01-06T10:13:38;2.60;;;1.30;;
51814;SDS011;37874;53.158;6.766;2024-01-06T10:16:07;2.13;;;1.20;;
51814;SDS011;37874;53.158;6.766;2024-01-06T10:18:33;2.97;;;1.50;;
51814;SDS011;37874;53.158;6.766;2024-01-06T10:21:04;2.83;;;1.40;;
51814;SDS011;37874;53.158;6.766;2024-01-06T10:23:31;2.80;;;1.30;;
51814;SDS011;37874;53.158;6.766;2024-01-06T10:25:57;2.60;;;1.23;;
51814;SDS011;37874;53.158;6.766;2024-01-06T10:28:23;2.28;;;1.30;;
51814;SDS011;37874;53.158;6.766;2024-01-06T10:30:53;2.47;;;1.35;;
51814;SDS011;37874;53.158;6.766;2024-01-06T10:33:23;2.35;;;1.25;;
51814;SDS011;37874;53.158;6.766;2024-01-06T10:35:52;2.30;;;1.45;;
51814;SDS011;37874;53.158;6.766;2024-01-06T10:38:25;2.22;;;1.23;;
51814;SDS011;37874;53.158;6.766;2024-01-06T10:41:04;2.53;;;1.50;;
51814;SDS011;37874;53.158;6.766;2024-01-06T10:43:34;2.38;;;1.40;;
51814;SDS011;37874;53.158;6.766;2024-01-06T10:46:07;2.00;;;1.17;;
51814;SDS011;37874;53.158;6.766;2024-01-06T10:48:38;2.85;;;1.40;;
51814;SDS011;37874;53.158;6.766;2024-01-06T10:51:08;2.20;;;1.45;;
51814;SDS011;37874;53.158;6.766;2024-01-06T10:53:39;2.75;;;1.50;;
51814;SDS011;37874;53.158;6.766;2024-01-06T10:56:06;3.03;;;1.50;;
51814;SDS011;37874;53.158;6.766;2024-01-06T10:58:33;2.55;;;1.30;;
51814;SDS011;37874;53.158;6.766;2024-01-06T11:01:07;2.80;;;1.42;;
51814;SDS011;37874;53.158;6.766;2024-01-06T11:03:37;2.97;;;1.58;;
51814;SDS011;37874;53.158;6.766;2024-01-06T11:06:08;2.67;;;1.48;;
51814;SDS011;37874;53.158;6.766;2024-01-06T11:08:40;2.70;;;1.55;;
51814;SDS011;37874;53.158;6.766;2024-01-06T11:11:20;3.47;;;1.60;;
51814;SDS011;37874;53.158;6.766;2024-01-06T11:13:49;3.55;;;1.58;;
51814;SDS011;37874;53.158;6.766;2024-01-06T11:16:35;2.95;;;1.70;;
51814;SDS011;37874;53.158;6.766;2024-01-06T11:19:02;2.55;;;1.40;;
51814;SDS011;37874;53.158;6.766;2024-01-06T11:21:33;2.78;;;1.50;;
51814;SDS011;37874;53.158;6.766;2024-01-06T11:24:13;2.80;;;1.60;;
51814;SDS011;37874;53.158;6.766;2024-01-06T11:26:50;3.53;;;1.70;;
51814;SDS011;37874;53.158;6.766;2024-01-06T11:29:18;2.83;;;1.40;;
51814;SDS011;37874;53.158;6.766;2024-01-06T11:32:16;2.92;;;1.60;;
51814;SDS011;37874;53.158;6.766;2024-01-06T11:34:48;3.20;;;1.92;;
51814;SDS011;37874;53.158;6.766;2024-01-06T11:37:28;3.30;;;1.70;;
51814;SDS011;37874;53.158;6.766;2024-01-06T11:40:10;2.72;;;1.58;;
51814;SDS011;37874;53.158;6.766;2024-01-06T11:42:46;3.13;;;1.70;;
51814;SDS011;37874;53.158;6.766;2024-01-06T11:45:13;2.70;;;1.73;;
51814;SDS011;37874;53.158;6.766;2024-01-06T11:47:47;2.45;;;1.70;;
51814;SDS011;37874;53.158;6.766;2024-01-06T11:50:17;2.60;;;1.60;;
51814;SDS011;37874;53.158;6.766;2024-01-06T11:52:42;3.25;;;1.85;;
51814;SDS011;37874;53.158;6.766;2024-01-06T11:55:13;3.17;;;1.63;;
51814;SDS011;37874;53.158;6.766;2024-01-06T11:57:40;3.83;;;1.65;;
51814;SDS011;37874;53.158;6.766;2024-01-06T12:00:06;3.30;;;1.70;;
51814;SDS011;37874;53.158;6.766;2024-01-06T12:02:32;3.30;;;1.70;;
51814;SDS011;37874;53.158;6.766;2024-01-06T12:04:58;3.15;;;1.50;;
51814;SDS011;37874;53.158;6.766;2024-01-06T12:07:24;2.88;;;1.52;;
51814;SDS011;37874;53.158;6.766;2024-01-06T12:09:50;3.72;;;1.60;;
51814;SDS011;37874;53.158;6.766;2024-01-06T12:12:25;3.08;;;1.65;;
51814;SDS011;37874;53.158;6.766;2024-01-06T12:14:51;2.50;;;1.60;;
51814;SDS011;37874;53.158;6.766;2024-01-06T12:17:17;2.55;;;1.50;;
51814;SDS011;37874;53.158;6.766;2024-01-06T12:19:46;2.20;;;1.35;;
51814;SDS011;37874;53.158;6.766;2024-01-06T12:22:14;2.80;;;1.80;;
51814;SDS011;37874;53.158;6.766;2024-01-06T12:24:41;2.58;;;1.70;;
51814;SDS011;37874;53.158;6.766;2024-01-06T12:27:10;2.80;;;1.65;;
51814;SDS011;37874;53.158;6.766;2024-01-06T12:29:38;3.13;;;1.80;;
51814;SDS011;37874;53.158;6.766;2024-01-06T12:32:05;2.92;;;1.50;;
51814;SDS011;37874;53.158;6.766;2024-01-06T12:34:32;3.35;;;1.65;;
51814;SDS011;37874;53.158;6.766;2024-01-06T12:36:58;3.33;;;1.73;;
51814;SDS011;37874;53.158;6.766;2024-01-06T12:39:27;2.47;;;1.60;;
51814;SDS011;37874;53.158;6.766;2024-01-06T12:41:56;2.97;;;1.55;;
51814;SDS011;37874;53.158;6.766;2024-01-06T12:44:25;2.88;;;1.80;;
51814;SDS011;37874;53.158;6.766;2024-01-06T12:46:55;3.13;;;1.70;;
51814;SDS011;37874;53.158;6.766;2024-01-06T12:49:21;2.50;;;1.60;;
51814;SDS011;37874;53.158;6.766;2024-01-06T12:51:47;2.92;;;1.75;;
51814;SDS011;37874;53.158;6.766;2024-01-06T12:54:13;2.67;;;1.55;;
51814;SDS011;37874;53.158;6.766;2024-01-06T12:56:40;2.58;;;1.52;;
51814;SDS011;37874;53.158;6.766;2024-01-06T12:59:06;2.90;;;1.45;;
51814;SDS011;37874;53.158;6.766;2024-01-06T13:01:32;2.45;;;1.42;;
51814;SDS011;37874;53.158;6.766;2024-01-06T13:03:58;2.70;;;1.40;;
51814;SDS011;37874;53.158;6.766;2024-01-06T13:06:26;1.75;;;1.10;;
51814;SDS011;37874;53.158;6.766;2024-01-06T13:08:52;2.58;;;1.50;;
51814;SDS011;37874;53.158;6.766;2024-01-06T13:11:19;2.67;;;1.58;;
51814;SDS011;37874;53.158;6.766;2024-01-06T13:13:45;2.83;;;1.38;;
51814;SDS011;37874;53.158;6.766;2024-01-06T13:16:11;2.90;;;1.70;;
51814;SDS011;37874;53.158;6.766;2024-01-06T13:18:37;2.25;;;1.48;;
51814;SDS011;37874;53.158;6.766;2024-01-06T13:21:03;2.75;;;1.50;;
51814;SDS011;37874;53.158;6.766;2024-01-06T13:23:29;2.50;;;1.55;;
51814;SDS011;37874;53.158;6.766;2024-01-06T13:25:55;2.22;;;1.45;;
51814;SDS011;37874;53.158;6.766;2024-01-06T13:28:23;2.42;;;1.33;;
51814;SDS011;37874;53.158;6.766;2024-01-06T13:30:50;2.10;;;1.40;;
51814;SDS011;37874;53.158;6.766;2024-01-06T13:33:16;2.45;;;1.58;;
51814;SDS011;37874;53.158;6.766;2024-01-06T13:35:42;2.80;;;1.50;;
51814;SDS011;37874;53.158;6.766;2024-01-06T13:38:08;2.58;;;1.45;;
51814;SDS011;37874;53.158;6.766;2024-01-06T13:40:34;2.85;;;1.60;;
51814;SDS011;37874;53.158;6.766;2024-01-06T13:43:12;2.22;;;1.30;;
51814;SDS011;37874;53.158;6.766;2024-01-06T13:45:41;3.47;;;1.65;;
51814;SDS011;37874;53.158;6.766;2024-01-06T13:48:08;2.50;;;1.70;;
51814;SDS011;37874;53.158;6.766;2024-01-06T13:50:37;2.63;;;1.40;;
51814;SDS011;37874;53.158;6.766;2024-01-06T13:53:03;2.13;;;1.45;;
51814;SDS011;37874;53.158;6.766;2024-01-06T13:55:33;2.22;;;1.40;;
51814;SDS011;37874;53.158;6.766;2024-01-06T13:58:00;1.92;;;1.20;;
51814;SDS011;37874;53.158;6.766;2024-01-06T14:00:26;2.50;;;1.40;;
51814;SDS011;37874;53.158;6.766;2024-01-06T14:02:52;2.10;;;1.50;;
51814;SDS011;37874;53.158;6.766;2024-01-06T14:05:19;2.97;;;1.42;;
51814;SDS011;37874;53.158;6.766;2024-01-06T14:07:45;2.92;;;1.50;;
51814;SDS011;37874;53.158;6.766;2024-01-06T14:10:14;3.30;;;1.77;;
51814;SDS011;37874;53.158;6.766;2024-01-06T14:12:40;2.72;;;1.40;;
51814;SDS011;37874;53.158;6.766;2024-01-06T14:15:07;2.47;;;1.50;;
51814;SDS011;37874;53.158;6.766;2024-01-06T14:17:34;2.92;;;1.63;;
51814;SDS011;37874;53.158;6.766;2024-01-06T14:20:00;2.20;;;1.50;;
51814;SDS011;37874;53.158;6.766;2024-01-06T14:22:29;1.90;;;1.20;;
51814;SDS011;37874;53.158;6.766;2024-01-06T14:28:18;2.58;;;1.50;;
51814;SDS011;37874;53.158;6.766;2024-01-06T14:34:24;2.35;;;1.58;;
51814;SDS011;37874;53.158;6.766;2024-01-06T14:37:09;2.33;;;1.33;;
51814;SDS011;37874;53.158;6.766;2024-01-06T14:42:57;2.63;;;1.60;;
51814;SDS011;37874;53.158;6.766;2024-01-06T14:49:04;2.42;;;1.50;;
51814;SDS011;37874;53.158;6.766;2024-01-06T14:52:07;2.50;;;1.63;;
51814;SDS011;37874;53.158;6.766;2024-01-06T14:54:52;2.17;;;1.35;;
51814;SDS011;37874;53.158;6.766;2024-01-06T15:13:13;2.92;;;1.60;;
51814;SDS011;37874;53.158;6.766;2024-01-06T15:15:57;2.63;;;1.60;;
51814;SDS011;37874;53.158;6.766;2024-01-06T15:18:23;2.20;;;1.50;;
51814;SDS011;37874;53.158;6.766;2024-01-06T15:24:12;2.50;;;1.50;;